createdAt,value
2023-09-22T00:03:44.582Z,0.50
2023-09-22T00:07:47.090Z,0.40
2023-09-22T00:11:49.475Z,0.40
2023-09-22T00:15:51.597Z,0.52
2023-09-22T00:19:53.727Z,0.50
2023-09-22T00:23:55.786Z,0.65
2023-09-22T00:27:57.979Z,0.70
2023-09-22T00:32:00.210Z,0.52
2023-09-22T00:36:03.638Z,0.50
2023-09-22T00:40:09.883Z,0.70
2023-09-22T00:44:12.877Z,0.52
2023-09-22T00:48:22.722Z,0.50
2023-09-22T00:52:26.955Z,0.47
2023-09-22T00:56:29.937Z,0.43
2023-09-22T01:00:32.967Z,0.65
2023-09-22T01:04:35.457Z,0.80
2023-09-22T01:08:38.210Z,0.82
2023-09-22T01:12:40.332Z,0.70
2023-09-22T01:16:43.397Z,0.43
2023-09-22T01:20:46.682Z,0.80
2023-09-22T01:24:48.817Z,0.60
2023-09-22T01:28:51.939Z,0.55
2023-09-22T01:32:54.020Z,0.50
2023-09-22T01:36:56.160Z,0.50
2023-09-22T01:40:59.312Z,0.60
2023-09-22T01:45:02.699Z,0.60
2023-09-22T01:49:04.801Z,0.75
2023-09-22T01:53:11.086Z,0.40
2023-09-22T01:57:14.408Z,0.73
2023-09-22T02:01:16.508Z,0.50
2023-09-22T02:05:19.946Z,0.50
2023-09-22T02:09:22.374Z,0.60
2023-09-22T02:13:24.544Z,0.50
2023-09-22T02:17:27.096Z,0.45
2023-09-22T02:21:29.232Z,0.50
2023-09-22T02:25:31.336Z,0.55
2023-09-22T02:29:33.587Z,0.55
2023-09-22T02:33:35.669Z,0.50
2023-09-22T02:37:38.009Z,0.82
2023-09-22T02:41:40.057Z,0.80
2023-09-22T02:45:43.198Z,0.82
2023-09-22T02:49:45.479Z,0.50
2023-09-22T02:53:48.510Z,0.70
2023-09-22T02:57:51.619Z,0.50
2023-09-22T03:01:54.847Z,0.50
2023-09-22T03:06:00.421Z,0.50
2023-09-22T03:10:07.470Z,0.50
2023-09-22T03:14:09.730Z,0.47
2023-09-22T03:18:12.240Z,0.50
2023-09-22T03:22:14.550Z,0.60
2023-09-22T03:26:17.085Z,0.50
2023-09-22T03:30:19.449Z,0.50
2023-09-22T03:34:22.424Z,0.65
2023-09-22T03:38:26.968Z,0.65
2023-09-22T03:42:29.143Z,0.50
2023-09-22T03:46:32.611Z,0.45
2023-09-22T03:50:34.739Z,0.47
2023-09-22T03:54:37.247Z,0.47
2023-09-22T03:58:41.028Z,0.55
2023-09-22T04:02:43.197Z,0.70
2023-09-22T04:06:46.189Z,0.50
2023-09-22T04:10:48.264Z,0.68
2023-09-22T04:14:50.309Z,0.60
2023-09-22T04:18:55.371Z,0.80
2023-09-22T04:22:59.406Z,0.60
2023-09-22T04:27:06.825Z,0.40
2023-09-22T04:31:12.560Z,0.57
2023-09-22T04:35:14.897Z,0.65
2023-09-22T04:39:17.581Z,0.70
2023-09-22T04:43:19.756Z,0.75
2023-09-22T04:47:22.117Z,1.05
2023-09-22T04:51:24.203Z,1.00
2023-09-22T04:55:26.522Z,1.10
2023-09-22T04:59:29.263Z,1.17
2023-09-22T05:03:31.983Z,1.00
2023-09-22T05:07:34.763Z,1.00
2023-09-22T05:11:37.760Z,0.93
2023-09-22T05:15:42.937Z,0.80
2023-09-22T05:19:45.810Z,1.05
2023-09-22T05:23:52.470Z,0.80
2023-09-22T05:31:56.655Z,0.85
2023-09-22T05:35:59.142Z,0.95
2023-09-22T05:40:01.234Z,0.90
2023-09-22T05:44:03.460Z,1.15
2023-09-22T05:48:06.175Z,1.17
2023-09-22T05:52:08.799Z,1.00
2023-09-22T05:56:12.243Z,1.10
2023-09-22T06:00:18.034Z,1.20
2023-09-22T06:04:20.347Z,1.10
2023-09-22T06:08:22.447Z,1.02
2023-09-22T06:12:24.491Z,1.10
2023-09-22T06:16:27.095Z,1.30
2023-09-22T06:20:29.267Z,1.25
2023-09-22T06:24:31.355Z,1.50
2023-09-22T06:28:36.496Z,1.45
2023-09-22T06:32:41.922Z,1.20
2023-09-22T06:36:44.049Z,1.15
2023-09-22T06:40:46.373Z,1.10
2023-09-22T06:44:48.428Z,1.17
2023-09-22T06:48:50.520Z,1.00
2023-09-22T06:52:52.602Z,0.90
2023-09-22T06:56:55.434Z,1.05
2023-09-22T07:00:57.817Z,1.23
2023-09-22T07:05:00.045Z,1.30
2023-09-22T07:09:02.078Z,1.08
2023-09-22T07:13:04.908Z,1.17
2023-09-22T07:17:07.034Z,1.20
2023-09-22T07:21:12.178Z,1.08
2023-09-22T07:25:15.343Z,1.33
2023-09-22T07:29:18.985Z,1.23
2023-09-22T07:33:22.139Z,1.25
2023-09-22T07:37:24.654Z,1.20
2023-09-22T07:41:26.777Z,1.50
2023-09-22T07:45:30.105Z,1.25
2023-09-22T07:49:32.259Z,0.90
2023-09-22T07:53:34.768Z,1.00
2023-09-22T07:57:36.944Z,1.08
2023-09-22T08:01:39.031Z,1.10
2023-09-22T08:05:41.307Z,1.17
2023-09-22T08:09:43.570Z,0.82
2023-09-22T08:13:49.035Z,1.02
2023-09-22T08:17:51.417Z,1.00
2023-09-22T08:21:53.560Z,0.90
2023-09-22T08:25:57.457Z,1.05
2023-09-22T08:29:59.642Z,0.95
2023-09-22T08:34:03.428Z,0.98
2023-09-22T08:38:06.168Z,0.90
2023-09-22T08:42:08.675Z,0.82
2023-09-22T08:46:12.916Z,1.00
2023-09-22T08:50:19.377Z,0.98
2023-09-22T08:54:21.549Z,1.30
2023-09-22T08:58:23.583Z,0.80
2023-09-22T09:02:26.898Z,0.85
2023-09-22T09:06:46.222Z,0.75
2023-09-22T09:10:49.637Z,0.60
2023-09-22T09:14:59.200Z,0.90
2023-09-22T09:19:17.110Z,0.90
2023-09-22T09:23:20.928Z,0.90
2023-09-22T09:27:23.092Z,0.90
2023-09-22T09:31:43.669Z,0.88
2023-09-22T09:35:51.121Z,1.15
2023-09-22T09:39:57.119Z,0.75
2023-09-22T09:44:04.754Z,0.75
2023-09-22T09:48:11.204Z,0.80
2023-09-22T09:52:17.120Z,0.60
2023-09-22T09:56:19.801Z,0.63
2023-09-22T10:00:22.280Z,0.60
2023-09-22T10:04:25.354Z,0.65
2023-09-22T10:08:28.216Z,0.68
2023-09-22T10:12:31.620Z,0.70
2023-09-22T10:16:34.008Z,0.70
2023-09-22T10:20:46.996Z,0.70
2023-09-22T10:25:34.768Z,0.80
2023-09-22T10:33:48.946Z,0.70
2023-09-22T10:38:03.386Z,0.70
2023-09-22T10:42:07.358Z,0.90
2023-09-22T10:46:18.287Z,0.60
2023-09-22T10:50:22.441Z,1.35
2023-09-22T10:54:24.499Z,0.60
2023-09-22T10:58:27.689Z,0.75
2023-09-22T11:02:30.128Z,0.73
2023-09-22T11:06:46.226Z,0.70
2023-09-22T11:10:50.415Z,0.60
2023-09-22T11:14:53.057Z,1.00
2023-09-22T11:19:06.222Z,0.77
2023-09-22T11:23:08.371Z,0.63
2023-09-22T11:27:11.602Z,0.60
2023-09-22T11:31:16.104Z,0.60
2023-09-22T11:35:41.621Z,0.70
2023-09-22T11:39:44.176Z,0.55
2023-09-22T11:43:50.491Z,0.55
2023-09-22T11:48:05.181Z,0.70
2023-09-22T11:52:07.338Z,0.60
2023-09-22T11:56:09.418Z,0.40
2023-09-22T12:00:15.084Z,0.52
2023-09-22T12:04:19.921Z,0.55
2023-09-22T12:08:22.301Z,0.50
2023-09-22T12:12:24.357Z,0.50
2023-09-22T12:16:26.483Z,0.63
2023-09-22T12:20:28.662Z,0.70
2023-09-22T12:24:30.777Z,0.50
2023-09-22T12:28:32.803Z,0.63
2023-09-22T12:32:34.990Z,0.52
2023-09-22T12:36:37.170Z,0.57
2023-09-22T12:40:39.455Z,0.43
2023-09-22T12:44:41.733Z,0.60
2023-09-22T12:48:43.764Z,0.60
2023-09-22T12:52:45.972Z,0.60
2023-09-22T12:56:48.050Z,0.30
2023-09-22T13:00:50.540Z,0.50
2023-09-22T13:04:52.598Z,0.40
2023-09-22T13:08:55.730Z,0.60
2023-09-22T13:12:57.806Z,0.50
2023-09-22T13:16:59.969Z,0.40
2023-09-22T13:21:02.905Z,0.50
2023-09-22T13:25:06.150Z,0.40
2023-09-22T13:29:08.219Z,0.52
2023-09-22T13:33:12.344Z,0.75
2023-09-22T13:37:14.519Z,0.50
2023-09-22T13:41:17.457Z,0.50
2023-09-22T13:45:19.858Z,0.60
2023-09-22T13:49:22.865Z,0.60
2023-09-22T13:53:24.970Z,0.40
2023-09-22T13:57:27.117Z,0.70
2023-09-22T14:01:29.331Z,0.50
2023-09-22T14:05:33.135Z,0.80
2023-09-22T14:09:36.113Z,0.60
2023-09-22T14:13:38.482Z,0.70
2023-09-22T14:17:40.850Z,0.68
2023-09-22T14:21:43.058Z,0.77
2023-09-22T14:25:46.944Z,0.50
2023-09-22T14:29:49.130Z,0.63
2023-09-22T14:33:52.725Z,0.60
2023-09-22T14:37:56.647Z,0.60
2023-09-22T14:42:00.102Z,0.70
2023-09-22T14:46:02.450Z,0.60
2023-09-22T14:50:06.440Z,0.40
2023-09-22T14:54:08.517Z,0.70
2023-09-22T14:58:10.627Z,0.57
2023-09-22T15:02:13.729Z,0.60
2023-09-22T15:06:17.387Z,0.60
2023-09-22T15:10:19.484Z,0.50
2023-09-22T15:14:21.568Z,0.47
2023-09-22T15:18:25.104Z,0.88
2023-09-22T15:22:29.726Z,0.60
2023-09-22T15:26:31.806Z,0.55
2023-09-22T15:30:34.120Z,0.70
2023-09-22T15:34:36.241Z,0.60
2023-09-22T15:38:39.370Z,0.40
2023-09-22T15:42:41.438Z,0.80
2023-09-22T15:46:43.632Z,0.95
2023-09-22T15:50:45.767Z,0.60
2023-09-22T15:54:47.954Z,0.68
2023-09-22T15:58:50.085Z,0.65
2023-09-22T16:02:52.898Z,0.60
2023-09-22T16:06:55.061Z,0.95
2023-09-22T16:10:57.167Z,0.68
2023-09-22T16:14:59.267Z,0.60
2023-09-22T16:19:01.326Z,1.00
2023-09-22T16:23:03.572Z,0.90
2023-09-22T16:27:05.837Z,1.13
2023-09-22T16:31:08.720Z,0.70
2023-09-22T16:35:10.823Z,0.60
2023-09-22T16:39:12.885Z,0.57
2023-09-22T16:43:15.032Z,0.70
2023-09-22T16:47:17.476Z,1.10
2023-09-22T16:51:19.604Z,1.50
2023-09-22T16:55:23.122Z,2.50
2023-09-22T16:59:26.557Z,1.33
2023-09-22T17:03:28.769Z,0.60
2023-09-22T17:07:31.086Z,0.90
2023-09-22T17:11:33.209Z,0.90
2023-09-22T17:15:39.721Z,0.50
2023-09-22T17:19:41.941Z,1.00
2023-09-22T17:23:44.075Z,0.80
2023-09-22T17:27:46.120Z,0.52
2023-09-22T17:31:48.288Z,0.57
2023-09-22T17:35:50.490Z,0.50
2023-09-22T17:39:52.853Z,0.30
2023-09-22T17:43:55.057Z,0.52
2023-09-22T17:47:57.276Z,0.80
2023-09-22T17:51:59.791Z,1.88
2023-09-22T17:56:05.919Z,0.60
2023-09-22T18:00:09.653Z,0.70
2023-09-22T18:04:14.751Z,0.80
2023-09-22T18:08:17.834Z,0.65
2023-09-22T18:12:19.924Z,0.77
2023-09-22T18:16:23.860Z,0.70
2023-09-22T18:20:26.025Z,1.05
2023-09-22T18:24:28.091Z,0.50
2023-09-22T18:28:30.227Z,0.40
2023-09-22T18:32:32.617Z,0.20
2023-09-22T18:36:35.335Z,0.30
2023-09-22T18:40:37.424Z,0.32
2023-09-22T18:44:39.477Z,0.40
2023-09-22T18:48:42.315Z,0.20
2023-09-22T18:52:45.086Z,0.43
2023-09-22T18:56:47.159Z,0.38
2023-09-22T19:00:49.788Z,0.43
2023-09-22T19:04:51.959Z,0.50
2023-09-22T19:08:55.185Z,0.50
2023-09-22T19:12:58.502Z,0.47
2023-09-22T19:17:01.005Z,0.52
2023-09-22T19:21:07.639Z,0.47
2023-09-22T19:25:09.945Z,0.50
2023-09-22T19:29:12.038Z,0.73
2023-09-22T19:33:14.277Z,0.45
2023-09-22T19:37:16.774Z,0.77
2023-09-22T19:41:20.514Z,0.50
2023-09-22T19:45:22.741Z,0.43
2023-09-22T19:49:24.867Z,0.47
2023-09-22T19:53:30.473Z,0.50
2023-09-22T19:57:32.774Z,1.00
2023-09-22T20:01:35.085Z,0.68
2023-09-22T20:05:37.837Z,0.70
2023-09-22T20:09:39.911Z,0.70
2023-09-22T20:13:42.072Z,0.80
2023-09-22T20:17:44.395Z,0.70
2023-09-22T20:21:47.097Z,0.70
2023-09-22T20:25:49.186Z,0.60
2023-09-22T20:29:53.722Z,0.45
2023-09-22T20:33:56.041Z,0.40
2023-09-22T20:37:58.195Z,0.63
2023-09-22T20:42:00.579Z,0.75
2023-09-22T20:46:02.746Z,0.47
2023-09-22T20:50:05.348Z,0.60
2023-09-22T20:54:12.757Z,0.35
2023-09-22T20:58:14.985Z,0.30
2023-09-22T21:02:18.813Z,0.55
2023-09-22T21:06:20.968Z,0.60
2023-09-22T21:10:24.498Z,0.40
2023-09-22T21:14:26.635Z,0.50
2023-09-22T21:18:31.413Z,0.35
2023-09-22T21:22:33.459Z,0.50
2023-09-22T21:26:39.656Z,0.38
2023-09-22T21:30:46.499Z,0.50
2023-09-22T21:34:48.637Z,0.30
2023-09-22T21:38:54.917Z,0.30
2023-09-22T21:42:57.685Z,0.20
2023-09-22T21:47:01.195Z,0.30
2023-09-22T21:51:06.341Z,0.30
2023-09-22T21:55:09.564Z,0.35
2023-09-22T21:59:11.740Z,0.20
2023-09-22T22:03:13.961Z,0.15
2023-09-22T22:07:16.149Z,0.20
2023-09-22T22:11:20.895Z,0.20
2023-09-22T22:15:23.123Z,0.30
2023-09-22T22:19:25.217Z,0.30
2023-09-22T22:23:27.346Z,0.20
2023-09-22T22:27:29.747Z,0.28
2023-09-22T22:31:31.909Z,0.10
2023-09-22T22:35:36.317Z,0.20
2023-09-22T22:39:38.372Z,0.10
2023-09-22T22:43:40.646Z,0.20
2023-09-22T22:47:42.931Z,0.20
2023-09-22T22:51:45.127Z,0.20
2023-09-22T22:55:47.253Z,0.20
2023-09-22T22:59:49.628Z,0.20
2023-09-22T23:03:51.800Z,0.10
2023-09-22T23:07:54.206Z,0.10
2023-09-22T23:11:56.261Z,0.20
2023-09-22T23:16:05.119Z,0.13
2023-09-22T23:20:10.270Z,0.20
2023-09-22T23:24:15.890Z,0.20
2023-09-22T23:28:17.936Z,0.13
2023-09-22T23:32:19.967Z,0.20
2023-09-22T23:36:22.336Z,0.10
2023-09-22T23:40:24.642Z,0.30
2023-09-22T23:44:26.854Z,0.20
2023-09-22T23:48:29.395Z,0.30
2023-09-22T23:52:31.561Z,0.10
2023-09-22T23:56:36.386Z,0.10
